地図

経路データ

SID SEASON NUMBER BASIN SUBBASIN NAME ISO_TIME NATURE LAT LON WMO_WIND WMO_PRES WMO_AGENCY TRACK_TYPE DIST2LAND LANDFALL IFLAG USA_AGENCY USA_ATCF_ID USA_LAT USA_LON USA_RECORD USA_STATUS USA_WIND USA_PRES USA_SSHS USA_R34_NE USA_R34_SE USA_R34_SW USA_R34_NW USA_R50_NE USA_R50_SE USA_R50_SW USA_R50_NW USA_R64_NE USA_R64_SE USA_R64_SW USA_R64_NW USA_POCI USA_ROCI USA_RMW USA_EYE TOKYO_LAT TOKYO_LON TOKYO_GRADE TOKYO_WIND TOKYO_PRES TOKYO_R50_DIR TOKYO_R50_LONG TOKYO_R50_SHORT TOKYO_R30_DIR TOKYO_R30_LONG TOKYO_R30_SHORT TOKYO_LAND CMA_LAT CMA_LON CMA_CAT CMA_WIND CMA_PRES HKO_LAT HKO_LON HKO_CAT HKO_WIND HKO_PRES NEWDELHI_LAT NEWDELHI_LON NEWDELHI_GRADE NEWDELHI_WIND NEWDELHI_PRES NEWDELHI_CI NEWDELHI_DP NEWDELHI_POCI REUNION_LAT REUNION_LON REUNION_TYPE REUNION_WIND REUNION_PRES REUNION_TNUM REUNION_CI REUNION_RMW REUNION_R34_NE REUNION_R34_SE REUNION_R34_SW REUNION_R34_NW REUNION_R50_NE REUNION_R50_SE REUNION_R50_SW REUNION_R50_NW REUNION_R64_NE REUNION_R64_SE REUNION_R64_SW REUNION_R64_NW BOM_LAT BOM_LON BOM_TYPE BOM_WIND BOM_PRES BOM_TNUM BOM_CI BOM_RMW BOM_R34_NE BOM_R34_SE BOM_R34_SW BOM_R34_NW BOM_R50_NE BOM_R50_SE BOM_R50_SW BOM_R50_NW BOM_R64_NE BOM_R64_SE BOM_R64_SW BOM_R64_NW BOM_ROCI BOM_POCI BOM_EYE BOM_POS_METHOD BOM_PRES_METHOD NADI_LAT NADI_LON NADI_CAT NADI_WIND NADI_PRES WELLINGTON_LAT WELLINGTON_LON WELLINGTON_WIND WELLINGTON_PRES DS824_LAT DS824_LON DS824_STAGE DS824_WIND DS824_PRES TD9636_LAT TD9636_LON TD9636_STAGE TD9636_WIND TD9636_PRES TD9635_LAT TD9635_LON TD9635_WIND TD9635_PRES TD9635_ROCI NEUMANN_LAT NEUMANN_LON NEUMANN_CLASS NEUMANN_WIND NEUMANN_PRES MLC_LAT MLC_LON MLC_CLASS MLC_WIND MLC_PRES USA_GUST BOM_GUST BOM_GUST_PER REUNION_GUST REUNION_GUST_PER USA_SEAHGT USA_SEARAD_NE USA_SEARAD_SE USA_SEARAD_SW USA_SEARAD_NW STORM_SPEED STORM_DIR
1934315N06150 1934 77 WP MM NOT_NAMED 1934-11-11 10:00:00 NR 6.20000 150.000 main 973 970 __________O___ -1 6.20000 150.000 7 9 298
1934315N06150 1934 77 WP MM NOT_NAMED 1934-11-11 12:00:00 NR 6.33772 149.737 main 975 975 __________P___ -1 6.33772 149.737 7 9 297
1934315N06150 1934 77 WP MM NOT_NAMED 1934-11-11 15:00:00 NR 6.54255 149.328 main 986 993 __________P___ -1 6.54255 149.328 7 9 296
1934315N06150 1934 77 WP MM NOT_NAMED 1934-11-11 18:00:00 NR 6.74320 148.884 main 1000 1006 __________P___ -1 6.74320 148.884 7 10 293
1934315N06150 1934 77 WP MM NOT_NAMED 1934-11-11 21:00:00 NR 6.93723 148.383 main 1014 1014 __________P___ -1 6.93723 148.383 7 11 291
1934315N06150 1934 77 WP MM NOT_NAMED 1934-11-11 22:00:00 NR 7.00000 148.200 main 1023 1022 __________O___ -1 7.00000 148.200 7 12 288
1934315N06150 1934 77 WP MM NOT_NAMED 1934-11-12 00:00:00 NR 7.12240 147.807 main 1031 1031 __________P___ -1 7.12240 147.807 7 13 286
1934315N06150 1934 77 WP MM NOT_NAMED 1934-11-12 03:00:00 NR 7.29964 147.160 main 1053 1053 __________P___ -1 7.29964 147.160 7 14 285
1934315N06150 1934 77 WP MM NOT_NAMED 1934-11-12 06:00:00 NR 7.47204 146.464 main 1075 1076 __________P___ -1 7.47204 146.464 7 14 284
1934315N06150 1934 77 WP MM NOT_NAMED 1934-11-12 09:00:00 NR 7.64284 145.743 main 1091 1102 __________P___ -1 7.64284 145.743 7 15 283
1934315N06150 1934 77 WP MM NOT_NAMED 1934-11-12 10:00:00 NR 7.70000 145.500 main 1104 1104 __________O___ -1 7.70000 145.500 7 14 285
1934315N06150 1934 77 WP MM NOT_NAMED 1934-11-12 12:00:00 NR 7.82140 145.051 main 1121 1123 __________P___ -1 7.82140 145.051 7 14 285
1934315N06150 1934 77 WP MM NOT_NAMED 1934-11-12 15:00:00 NR 8.00383 144.367 main 1157 1160 __________P___ -1 8.00383 144.367 7 14 285
1934315N06150 1934 77 WP MM NOT_NAMED 1934-11-12 18:00:00 NR 8.18137 143.648 main 1201 1201 __________P___ -1 8.18137 143.648 7 15 283
1934315N06150 1934 77 WP MM NOT_NAMED 1934-11-12 21:00:00 NR 8.34797 142.874 main 1224 1222 __________P___ -1 8.34797 142.874 7 16 282
1934315N06150 1934 77 WP MM NOT_NAMED 1934-11-12 22:00:00 NR 8.40000 142.600 main 1222 1207 __________O___ -1 8.40000 142.600 7 17 279
1934315N06150 1934 77 WP MM NOT_NAMED 1934-11-13 00:00:00 NR 8.48670 142.028 main 1207 1187 __________P___ -1 8.48670 142.028 7 18 278
1934315N06150 1934 77 WP MM NOT_NAMED 1934-11-13 03:00:00 NR 8.60400 141.114 main 1187 1161 __________P___ -1 8.60400 141.114 7 19 277
1934315N06150 1934 77 WP MM NOT_NAMED 1934-11-13 06:00:00 NR 8.71997 140.146 main 1161 1136 __________P___ -1 8.71997 140.146 7 20 277
1934315N06150 1934 77 WP MM NOT_NAMED 1934-11-13 09:00:00 NR 8.85049 139.141 main 1143 1136 __________P___ -1 8.85049 139.141 7 20 278
1934315N06150 1934 77 WP MM NOT_NAMED 1934-11-13 10:00:00 NR 8.90000 138.800 main 1132 1121 __________O___ -1 8.90000 138.800 7 20 279
1934315N06150 1934 77 WP MM NOT_NAMED 1934-11-13 12:00:00 NR 9.01322 138.123 main 1121 1116 __________P___ -1 9.01322 138.123 7 21 280
1934315N06150 1934 77 WP MM NOT_NAMED 1934-11-13 15:00:00 NR 9.20216 137.082 main 1121 1051 __________P___ -1 9.20216 137.082 7 21 281
1934315N06150 1934 77 WP MM NOT_NAMED 1934-11-13 18:00:00 NR 9.40847 136.021 main 1051 948 __________P___ -1 9.40847 136.021 7 21 281
1934315N06150 1934 77 WP MM NOT_NAMED 1934-11-13 21:00:00 NR 9.62602 134.955 main 948 918 __________P___ -1 9.62602 134.955 7 22 282
1934315N06150 1934 77 WP MM NOT_NAMED 1934-11-13 22:00:00 NR 9.70000 134.600 main 908 836 __________O___ -1 9.70000 134.600 7 21 282
1934315N06150 1934 77 WP MM NOT_NAMED 1934-11-14 00:00:00 NR 9.84095 133.900 main 836 728 __________P___ -1 9.84095 133.900 7 21 282
1934315N06150 1934 77 WP MM NOT_NAMED 1934-11-14 03:00:00 NR 10.0591 132.849 main 728 626 __________P___ -1 10.0591 132.849 7 21 282
1934315N06150 1934 77 WP MM NOT_NAMED 1934-11-14 06:00:00 NR 10.2855 131.799 main 626 514 __________P___ -1 10.2855 131.799 7 21 283
1934315N06150 1934 77 WP MM NOT_NAMED 1934-11-14 09:00:00 NR 10.5200 130.750 main 514 496 __________P___ -1 10.5200 130.750 7 21 283
1934315N06150 1934 77 WP MM NOT_NAMED 1934-11-14 10:00:00 NR 10.6000 130.400 main 486 413 __________O___ -1 10.6000 130.400 7 22 282
1934315N06150 1934 77 WP MM NOT_NAMED 1934-11-14 12:00:00 NR 10.7510 129.637 main 413 294 __________P___ -1 10.7510 129.637 7 23 282
1934315N06150 1934 77 WP MM NOT_NAMED 1934-11-14 15:00:00 NR 10.9836 128.492 main 294 176 __________P___ -1 10.9836 128.492 7 22 282
1934315N06150 1934 77 WP MM NOT_NAMED 1934-11-14 18:00:00 NR 11.2311 127.411 main 176 94 __________P___ -1 11.2311 127.411 7 21 285
1934315N06150 1934 77 WP MM NOT_NAMED 1934-11-14 21:00:00 NR 11.5025 126.470 main 94 69 __________P___ -1 11.5025 126.470 7 19 287
1934315N06150 1934 77 WP MM NOT_NAMED 1934-11-14 22:00:00 NR 11.6000 126.200 main 69 34 __________O___ -1 11.6000 126.200 4 15 293
1934315N06150 1934 77 WP MM NOT_NAMED 1934-11-15 00:00:00 NR 11.7982 125.768 main 34 0 __________P___ -1 11.7982 125.768 4 13 300
1934315N06150 1934 77 WP MM NOT_NAMED 1934-11-15 03:00:00 NR 12.1220 125.271 main 0 0 __________P___ -1 12.1220 125.271 4 11 308
1934315N06150 1934 77 WP MM NOT_NAMED 1934-11-15 06:00:00 NR 12.4776 124.884 main 0 0 __________P___ -1 12.4776 124.884 4 10 316
1934315N06150 1934 77 WP MM NOT_NAMED 1934-11-15 09:00:00 NR 12.8643 124.527 main 43 32 __________P___ -1 12.8643 124.527 4 11 318
1934315N06150 1934 77 WP MM NOT_NAMED 1934-11-15 10:00:00 NR 13.0000 124.400 main 32 24 __________O___ -1 13.0000 124.400 4 13 316
1934315N06150 1934 77 WP MM NOT_NAMED 1934-11-15 12:00:00 NR 13.3111 124.079 main 24 0 __________P___ -1 13.3111 124.079 4 14 315
1934315N06150 1934 77 WP MM NOT_NAMED 1934-11-15 15:00:00 NR 13.8039 123.584 main 0 0 __________P___ -1 13.8039 123.584 4 14 315
1934315N06150 1934 77 WP MM NOT_NAMED 1934-11-15 18:00:00 NR 14.2808 123.079 main 24 15 __________P___ -1 14.2808 123.079 4 13 312
1934315N06150 1934 77 WP MM NOT_NAMED 1934-11-15 21:00:00 NR 14.6886 122.569 main 55 55 __________P___ -1 14.6886 122.569 4 13 308
1934315N06150 1934 77 WP MM NOT_NAMED 1934-11-15 22:00:00 NR 14.8000 122.400 main 67 48 __________O___ -1 14.8000 122.400 4 11 298
1934315N06150 1934 77 WP MM NOT_NAMED 1934-11-16 00:00:00 NR 14.9575 122.053 main 54 10 __________P___ -1 14.9575 122.053 4 11 290
1934315N06150 1934 77 WP MM NOT_NAMED 1934-11-16 03:00:00 NR 15.1118 121.532 main 10 0 __________P___ -1 15.1118 121.532 4 10 284
1934315N06150 1934 77 WP MM NOT_NAMED 1934-11-16 06:00:00 NR 15.2039 121.026 main 0 0 __________P___ -1 15.2039 121.026 4 10 280
1934315N06150 1934 77 WP MM NOT_NAMED 1934-11-16 09:00:00 NR 15.2743 120.550 main 0 0 __________P___ -1 15.2743 120.550 4 9 279
1934315N06150 1934 77 WP MM NOT_NAMED 1934-11-16 10:00:00 NR 15.3000 120.400 main 0 0 __________O___ -1 15.3000 120.400 4 9 283
1934315N06150 1934 77 WP MM NOT_NAMED 1934-11-16 12:00:00 NR 15.3780 120.085 main 0 0 __________P___ -1 15.3780 120.085 4 9 285
1934315N06150 1934 77 WP MM NOT_NAMED 1934-11-16 15:00:00 NR 15.4951 119.643 main 34 34 __________P___ -1 15.4951 119.643 4 8 287
1934315N06150 1934 77 WP MM NOT_NAMED 1934-11-16 18:00:00 NR 15.6176 119.262 main 61 63 __________P___ -1 15.6176 119.262 4 7 292
1934315N06150 1934 77 WP MM NOT_NAMED 1934-11-16 21:00:00 NR 15.7517 118.972 main 78 78 __________P___ -1 15.7517 118.972 4 6 298
1934315N06150 1934 77 WP MM NOT_NAMED 1934-11-16 22:00:00 NR 15.8000 118.900 main 88 88 __________O___ -1 15.8000 118.900 2 5 312
1934315N06150 1934 77 WP MM NOT_NAMED 1934-11-17 00:00:00 NR 15.9075 118.793 main 96 96 __________P___ -1 15.9075 118.793 2 4 328
1934315N06150 1934 77 WP MM NOT_NAMED 1934-11-17 03:00:00 NR 16.0819 118.720 main 107 107 __________P___ -1 16.0819 118.720 2 4 349
1934315N06150 1934 77 WP MM NOT_NAMED 1934-11-17 06:00:00 NR 16.2634 118.725 main 111 106 __________P___ -1 16.2634 118.725 2 4 9
1934315N06150 1934 77 WP MM NOT_NAMED 1934-11-17 09:00:00 NR 16.4425 118.778 main 106 109 __________P___ -1 16.4425 118.778 2 4 17
1934315N06150 1934 77 WP MM NOT_NAMED 1934-11-17 10:00:00 NR 16.5000 118.800 main 109 109 __________O___ -1 16.5000 118.800 2 3 16
1934315N06150 1934 77 WP MM NOT_NAMED 1934-11-17 12:00:00 NR 16.5794 118.814 main 111 105 __________P___ -1 16.5794 118.814 2 2 14
1934315N06150 1934 77 WP MM NOT_NAMED 1934-11-17 15:00:00 NR 16.6917 118.861 main 105 105 __________P___ -1 16.6917 118.861 2 3 26
1934315N06150 1934 77 WP MM NOT_NAMED 1934-11-17 18:00:00 NR 16.8263 118.939 main 111 108 __________P___ -1 16.8263 118.939 2 4 30
1934315N06150 1934 77 WP MM NOT_NAMED 1934-11-17 21:00:00 NR 17.0177 119.054 main 108 108 __________P___ -1 17.0177 119.054 2 5 29
1934315N06150 1934 77 WP MM NOT_NAMED 1934-11-17 22:00:00 NR 17.1000 119.100 main 116 116 __________O___ -1 17.1000 119.100 2 6 28
1934315N06150 1934 77 WP MM NOT_NAMED 1934-11-18 00:00:00 NR 17.3044 119.207 main 121 95 __________P___ -1 17.3044 119.207 2 8 26
1934315N06150 1934 77 WP MM NOT_NAMED 1934-11-18 03:00:00 NR 17.6740 119.400 main 96 86 __________P___ -1 17.6740 119.400 2 9 26
1934315N06150 1934 77 WP MM NOT_NAMED 1934-11-18 06:00:00 NR 18.0967 119.614 main 92 81 __________P___ -1 18.0967 119.614 2 10 25
1934315N06150 1934 77 WP MM NOT_NAMED 1934-11-18 09:00:00 NR 18.5477 119.830 main 85 77 __________P___ -1 18.5477 119.830 2 10 24
1934315N06150 1934 77 WP MM NOT_NAMED 1934-11-18 10:00:00 NR 18.7000 119.900 main 81 77 __________O___ -1 18.7000 119.900 2 10 23
1934315N06150 1934 77 WP MM NOT_NAMED 1934-11-18 12:00:00 NR 19.0033 120.032 main 92 92 __________P___ -1 19.0033 120.032 2 10 21
1934315N06150 1934 77 WP MM NOT_NAMED 1934-11-18 15:00:00 NR 19.4550 120.215 main 118 118 __________P___ -1 19.4550 120.215 2 10 20
1934315N06150 1934 77 WP MM NOT_NAMED 1934-11-18 18:00:00 NR 19.9039 120.384 main 151 151 __________P___ -1 19.9039 120.384 2 10 19
1934315N06150 1934 77 WP MM NOT_NAMED 1934-11-18 21:00:00 NR 20.3511 120.546 main 169 156 __________P___ -1 20.3511 120.546 2 9 19
1934315N06150 1934 77 WP MM NOT_NAMED 1934-11-18 22:00:00 NR 20.5000 120.600 main 156 __________O___ -1 20.5000 120.600 2 9 20

デジタル台風データ・検索

IBTrACS Databaseについて

本データベースは、米国NOAAが公開する1842年以降の世界の熱帯低気圧のベストトラックデータアーカイブInternational Best Track Archive for Climate Stewardship (IBTrACS)を、ウェブで閲覧しやすい形式に変換したものです。

最終更新日:2021-11-26